sensor_id;sensor_type;location;lat;lon;timestamp;temperature;humidity
13458;DHT22;6801;53.018;11.560;2023-04-03T00:01:48;4.00;71.20
13458;DHT22;6801;53.018;11.560;2023-04-03T00:04:16;4.00;71.20
13458;DHT22;6801;53.018;11.560;2023-04-03T00:06:43;4.00;71.20
13458;DHT22;6801;53.018;11.560;2023-04-03T00:09:11;4.00;71.20
13458;DHT22;6801;53.018;11.560;2023-04-03T00:11:38;3.90;71.30
13458;DHT22;6801;53.018;11.560;2023-04-03T00:14:04;3.90;71.30
13458;DHT22;6801;53.018;11.560;2023-04-03T00:16:33;3.90;71.20
13458;DHT22;6801;53.018;11.560;2023-04-03T00:19:00;3.90;71.20
13458;DHT22;6801;53.018;11.560;2023-04-03T00:21:27;3.90;71.20
13458;DHT22;6801;53.018;11.560;2023-04-03T00:23:54;3.90;71.20
13458;DHT22;6801;53.018;11.560;2023-04-03T00:26:21;3.80;71.30
13458;DHT22;6801;53.018;11.560;2023-04-03T00:28:48;3.80;71.30
13458;DHT22;6801;53.018;11.560;2023-04-03T00:31:15;3.80;71.40
13458;DHT22;6801;53.018;11.560;2023-04-03T00:33:44;3.80;71.30
13458;DHT22;6801;53.018;11.560;2023-04-03T00:36:12;3.80;71.40
13458;DHT22;6801;53.018;11.560;2023-04-03T00:38:40;3.80;71.40
13458;DHT22;6801;53.018;11.560;2023-04-03T00:41:07;3.70;71.40
13458;DHT22;6801;53.018;11.560;2023-04-03T00:43:34;3.70;71.40
13458;DHT22;6801;53.018;11.560;2023-04-03T00:46:01;3.70;71.50
13458;DHT22;6801;53.018;11.560;2023-04-03T00:48:31;3.70;71.40
13458;DHT22;6801;53.018;11.560;2023-04-03T00:51:00;3.70;71.50
13458;DHT22;6801;53.018;11.560;2023-04-03T00:53:31;3.70;71.50
13458;DHT22;6801;53.018;11.560;2023-04-03T00:56:00;3.60;71.50
13458;DHT22;6801;53.018;11.560;2023-04-03T00:58:31;3.60;71.50
13458;DHT22;6801;53.018;11.560;2023-04-03T01:01:02;3.60;71.40
13458;DHT22;6801;53.018;11.560;2023-04-03T01:03:30;3.60;71.40
13458;DHT22;6801;53.018;11.560;2023-04-03T01:06:01;3.60;71.50
13458;DHT22;6801;53.018;11.560;2023-04-03T01:08:28;3.60;71.40
13458;DHT22;6801;53.018;11.560;2023-04-03T01:10:55;3.60;71.40
13458;DHT22;6801;53.018;11.560;2023-04-03T01:13:26;3.50;71.40
13458;DHT22;6801;53.018;11.560;2023-04-03T01:15:55;3.50;71.50
13458;DHT22;6801;53.018;11.560;2023-04-03T01:18:24;3.50;71.50
13458;DHT22;6801;53.018;11.560;2023-04-03T01:24:08;3.40;71.50
13458;DHT22;6801;53.018;11.560;2023-04-03T01:26:38;3.40;71.50
13458;DHT22;6801;53.018;11.560;2023-04-03T01:29:06;3.40;71.50
13458;DHT22;6801;53.018;11.560;2023-04-03T01:31:45;3.40;71.50
13458;DHT22;6801;53.018;11.560;2023-04-03T01:34:13;3.40;71.50
13458;DHT22;6801;53.018;11.560;2023-04-03T01:36:40;3.40;71.60
13458;DHT22;6801;53.018;11.560;2023-04-03T01:39:07;3.30;71.50
13458;DHT22;6801;53.018;11.560;2023-04-03T01:41:34;3.30;71.60
13458;DHT22;6801;53.018;11.560;2023-04-03T01:44:10;3.30;71.60
13458;DHT22;6801;53.018;11.560;2023-04-03T01:46:37;3.30;71.60
13458;DHT22;6801;53.018;11.560;2023-04-03T01:49:06;3.30;71.50
13458;DHT22;6801;53.018;11.560;2023-04-03T01:51:33;3.30;71.60
13458;DHT22;6801;53.018;11.560;2023-04-03T01:54:00;3.20;71.60
13458;DHT22;6801;53.018;11.560;2023-04-03T01:56:27;3.20;71.60
13458;DHT22;6801;53.018;11.560;2023-04-03T01:58:54;3.20;71.60
13458;DHT22;6801;53.018;11.560;2023-04-03T02:01:21;3.20;71.60
13458;DHT22;6801;53.018;11.560;2023-04-03T02:03:48;3.20;71.60
13458;DHT22;6801;53.018;11.560;2023-04-03T02:06:18;3.20;71.60
13458;DHT22;6801;53.018;11.560;2023-04-03T02:08:44;3.10;71.70
13458;DHT22;6801;53.018;11.560;2023-04-03T02:11:11;3.10;71.70
13458;DHT22;6801;53.018;11.560;2023-04-03T02:13:38;3.10;71.70
13458;DHT22;6801;53.018;11.560;2023-04-03T02:16:07;3.10;71.70
13458;DHT22;6801;53.018;11.560;2023-04-03T02:18:34;3.10;71.70
13458;DHT22;6801;53.018;11.560;2023-04-03T02:21:01;3.10;71.60
13458;DHT22;6801;53.018;11.560;2023-04-03T02:23:29;3.00;71.70
13458;DHT22;6801;53.018;11.560;2023-04-03T02:26:03;3.10;71.60
13458;DHT22;6801;53.018;11.560;2023-04-03T02:28:31;3.00;71.70
13458;DHT22;6801;53.018;11.560;2023-04-03T02:30:58;3.00;71.60
13458;DHT22;6801;53.018;11.560;2023-04-03T02:33:25;3.00;71.60
13458;DHT22;6801;53.018;11.560;2023-04-03T02:35:53;3.00;71.60
13458;DHT22;6801;53.018;11.560;2023-04-03T02:38:22;3.00;71.60
13458;DHT22;6801;53.018;11.560;2023-04-03T02:40:50;3.00;71.60
13458;DHT22;6801;53.018;11.560;2023-04-03T02:43:18;3.00;71.60
13458;DHT22;6801;53.018;11.560;2023-04-03T02:45:45;3.00;71.60
13458;DHT22;6801;53.018;11.560;2023-04-03T02:48:12;2.90;71.60
13458;DHT22;6801;53.018;11.560;2023-04-03T02:50:40;2.90;71.60
13458;DHT22;6801;53.018;11.560;2023-04-03T02:53:07;2.90;71.60
13458;DHT22;6801;53.018;11.560;2023-04-03T02:55:34;2.90;71.60
13458;DHT22;6801;53.018;11.560;2023-04-03T02:58:03;2.90;71.50
13458;DHT22;6801;53.018;11.560;2023-04-03T03:00:30;2.90;71.50
13458;DHT22;6801;53.018;11.560;2023-04-03T03:02:57;2.90;71.40
13458;DHT22;6801;53.018;11.560;2023-04-03T03:05:25;2.90;71.40
13458;DHT22;6801;53.018;11.560;2023-04-03T03:07:52;2.90;71.50
13458;DHT22;6801;53.018;11.560;2023-04-03T03:10:20;2.80;71.60
13458;DHT22;6801;53.018;11.560;2023-04-03T03:12:47;2.80;71.70
13458;DHT22;6801;53.018;11.560;2023-04-03T03:15:15;2.80;71.70
13458;DHT22;6801;53.018;11.560;2023-04-03T03:17:43;2.70;71.70
13458;DHT22;6801;53.018;11.560;2023-04-03T03:20:11;2.70;71.80
13458;DHT22;6801;53.018;11.560;2023-04-03T03:22:39;2.70;71.80
13458;DHT22;6801;53.018;11.560;2023-04-03T03:25:07;2.60;71.80
13458;DHT22;6801;53.018;11.560;2023-04-03T03:27:36;2.60;71.90
13458;DHT22;6801;53.018;11.560;2023-04-03T03:30:04;2.60;71.90
13458;DHT22;6801;53.018;11.560;2023-04-03T03:32:33;2.60;71.90
13458;DHT22;6801;53.018;11.560;2023-04-03T03:35:01;2.60;71.90
13458;DHT22;6801;53.018;11.560;2023-04-03T03:37:28;2.60;71.90
13458;DHT22;6801;53.018;11.560;2023-04-03T03:39:55;2.60;71.90
13458;DHT22;6801;53.018;11.560;2023-04-03T03:42:22;2.60;71.80
13458;DHT22;6801;53.018;11.560;2023-04-03T03:44:49;2.60;71.90
13458;DHT22;6801;53.018;11.560;2023-04-03T03:47:18;2.50;71.90
13458;DHT22;6801;53.018;11.560;2023-04-03T03:49:47;2.60;71.90
13458;DHT22;6801;53.018;11.560;2023-04-03T03:52:15;2.50;72.00
13458;DHT22;6801;53.018;11.560;2023-04-03T03:54:42;2.50;72.00
13458;DHT22;6801;53.018;11.560;2023-04-03T03:57:10;2.50;72.00
13458;DHT22;6801;53.018;11.560;2023-04-03T03:59:37;2.50;72.00
13458;DHT22;6801;53.018;11.560;2023-04-03T04:02:06;2.50;71.90
13458;DHT22;6801;53.018;11.560;2023-04-03T04:04:33;2.50;71.90
13458;DHT22;6801;53.018;11.560;2023-04-03T04:07:02;2.50;71.90
13458;DHT22;6801;53.018;11.560;2023-04-03T04:09:31;2.50;71.90
13458;DHT22;6801;53.018;11.560;2023-04-03T04:11:58;2.40;71.90
13458;DHT22;6801;53.018;11.560;2023-04-03T04:14:25;2.40;71.90
13458;DHT22;6801;53.018;11.560;2023-04-03T04:16:53;2.40;71.90
13458;DHT22;6801;53.018;11.560;2023-04-03T04:19:23;2.40;71.80
13458;DHT22;6801;53.018;11.560;2023-04-03T04:21:50;2.40;71.80
13458;DHT22;6801;53.018;11.560;2023-04-03T04:24:21;2.40;71.90
13458;DHT22;6801;53.018;11.560;2023-04-03T04:26:51;2.40;71.90
13458;DHT22;6801;53.018;11.560;2023-04-03T04:29:19;2.30;71.90
13458;DHT22;6801;53.018;11.560;2023-04-03T04:31:49;2.40;71.90
13458;DHT22;6801;53.018;11.560;2023-04-03T04:34:16;2.30;71.90
13458;DHT22;6801;53.018;11.560;2023-04-03T04:36:43;2.30;71.90
13458;DHT22;6801;53.018;11.560;2023-04-03T04:39:10;2.30;71.90
13458;DHT22;6801;53.018;11.560;2023-04-03T04:41:39;2.30;71.90
13458;DHT22;6801;53.018;11.560;2023-04-03T04:44:08;2.30;71.90
13458;DHT22;6801;53.018;11.560;2023-04-03T04:46:36;2.30;71.80
13458;DHT22;6801;53.018;11.560;2023-04-03T04:49:04;2.30;71.80
13458;DHT22;6801;53.018;11.560;2023-04-03T04:51:31;2.30;71.80
13458;DHT22;6801;53.018;11.560;2023-04-03T04:53:58;2.30;71.80
13458;DHT22;6801;53.018;11.560;2023-04-03T04:56:25;2.30;71.70
13458;DHT22;6801;53.018;11.560;2023-04-03T04:58:55;2.30;71.70
13458;DHT22;6801;53.018;11.560;2023-04-03T05:01:23;2.30;71.80
13458;DHT22;6801;53.018;11.560;2023-04-03T05:04:00;2.30;71.90
13458;DHT22;6801;53.018;11.560;2023-04-03T05:06:27;2.30;71.80
13458;DHT22;6801;53.018;11.560;2023-04-03T05:08:56;2.30;71.90
13458;DHT22;6801;53.018;11.560;2023-04-03T05:11:23;2.20;71.90
13458;DHT22;6801;53.018;11.560;2023-04-03T05:13:52;2.30;72.00
13458;DHT22;6801;53.018;11.560;2023-04-03T05:16:21;2.30;72.00
13458;DHT22;6801;53.018;11.560;2023-04-03T05:18:48;2.20;72.00
13458;DHT22;6801;53.018;11.560;2023-04-03T05:21:19;2.30;72.00
13458;DHT22;6801;53.018;11.560;2023-04-03T05:23:49;2.20;71.90
13458;DHT22;6801;53.018;11.560;2023-04-03T05:26:17;2.30;72.00
13458;DHT22;6801;53.018;11.560;2023-04-03T05:28:46;2.30;72.00
13458;DHT22;6801;53.018;11.560;2023-04-03T05:31:13;2.20;72.00
13458;DHT22;6801;53.018;11.560;2023-04-03T05:33:42;2.30;72.10
13458;DHT22;6801;53.018;11.560;2023-04-03T05:36:14;2.30;71.90
13458;DHT22;6801;53.018;11.560;2023-04-03T05:38:45;2.30;71.90
13458;DHT22;6801;53.018;11.560;2023-04-03T05:41:12;2.30;72.00
13458;DHT22;6801;53.018;11.560;2023-04-03T05:43:40;2.40;72.10
13458;DHT22;6801;53.018;11.560;2023-04-03T05:46:10;2.40;72.10
13458;DHT22;6801;53.018;11.560;2023-04-03T05:48:38;2.50;72.10
13458;DHT22;6801;53.018;11.560;2023-04-03T05:51:14;2.50;72.20
13458;DHT22;6801;53.018;11.560;2023-04-03T05:53:42;2.50;72.10
13458;DHT22;6801;53.018;11.560;2023-04-03T05:56:10;2.60;72.10
13458;DHT22;6801;53.018;11.560;2023-04-03T05:58:39;2.60;72.00
13458;DHT22;6801;53.018;11.560;2023-04-03T06:01:06;2.70;72.00
13458;DHT22;6801;53.018;11.560;2023-04-03T06:03:34;2.80;71.90
13458;DHT22;6801;53.018;11.560;2023-04-03T06:06:03;2.80;71.90
13458;DHT22;6801;53.018;11.560;2023-04-03T06:08:32;2.90;71.80
13458;DHT22;6801;53.018;11.560;2023-04-03T06:11:00;3.00;71.80
13458;DHT22;6801;53.018;11.560;2023-04-03T06:13:28;3.00;71.80
13458;DHT22;6801;53.018;11.560;2023-04-03T06:15:55;3.10;71.70
13458;DHT22;6801;53.018;11.560;2023-04-03T06:18:24;3.10;71.60
13458;DHT22;6801;53.018;11.560;2023-04-03T06:20:51;3.20;71.60
13458;DHT22;6801;53.018;11.560;2023-04-03T06:23:19;3.20;71.60
13458;DHT22;6801;53.018;11.560;2023-04-03T06:25:47;3.30;71.60
13458;DHT22;6801;53.018;11.560;2023-04-03T06:28:14;3.30;71.60
13458;DHT22;6801;53.018;11.560;2023-04-03T06:30:41;3.40;71.60
13458;DHT22;6801;53.018;11.560;2023-04-03T06:33:08;3.50;71.50
13458;DHT22;6801;53.018;11.560;2023-04-03T06:35:35;3.50;71.50
13458;DHT22;6801;53.018;11.560;2023-04-03T06:38:04;3.60;71.50
13458;DHT22;6801;53.018;11.560;2023-04-03T06:40:34;3.70;71.50
13458;DHT22;6801;53.018;11.560;2023-04-03T06:43:03;3.80;71.50
13458;DHT22;6801;53.018;11.560;2023-04-03T06:45:30;3.90;71.50
13458;DHT22;6801;53.018;11.560;2023-04-03T06:47:57;3.90;71.40
13458;DHT22;6801;53.018;11.560;2023-04-03T06:50:24;4.00;71.40
13458;DHT22;6801;53.018;11.560;2023-04-03T06:52:51;4.00;71.40
13458;DHT22;6801;53.018;11.560;2023-04-03T06:55:18;4.10;71.40
13458;DHT22;6801;53.018;11.560;2023-04-03T06:57:45;4.20;71.30
13458;DHT22;6801;53.018;11.560;2023-04-03T07:00:15;4.30;71.40
13458;DHT22;6801;53.018;11.560;2023-04-03T07:02:42;4.40;71.50
13458;DHT22;6801;53.018;11.560;2023-04-03T07:05:09;4.50;71.60
13458;DHT22;6801;53.018;11.560;2023-04-03T07:07:37;4.60;71.60
13458;DHT22;6801;53.018;11.560;2023-04-03T07:10:05;4.80;70.40
13458;DHT22;6801;53.018;11.560;2023-04-03T07:12:33;5.00;69.70
13458;DHT22;6801;53.018;11.560;2023-04-03T07:15:00;5.10;69.00
13458;DHT22;6801;53.018;11.560;2023-04-03T07:17:28;5.20;68.70
13458;DHT22;6801;53.018;11.560;2023-04-03T07:19:55;5.30;67.80
13458;DHT22;6801;53.018;11.560;2023-04-03T07:22:22;5.30;67.90
13458;DHT22;6801;53.018;11.560;2023-04-03T07:24:49;5.40;68.00
13458;DHT22;6801;53.018;11.560;2023-04-03T07:27:16;5.50;67.50
13458;DHT22;6801;53.018;11.560;2023-04-03T07:29:44;5.60;66.80
13458;DHT22;6801;53.018;11.560;2023-04-03T07:32:11;5.50;67.50
13458;DHT22;6801;53.018;11.560;2023-04-03T07:34:40;5.60;67.40
13458;DHT22;6801;53.018;11.560;2023-04-03T07:37:07;5.70;66.10
13458;DHT22;6801;53.018;11.560;2023-04-03T07:39:34;5.60;66.70
13458;DHT22;6801;53.018;11.560;2023-04-03T07:42:02;5.80;67.20
13458;DHT22;6801;53.018;11.560;2023-04-03T07:44:29;5.80;66.70
13458;DHT22;6801;53.018;11.560;2023-04-03T07:46:56;5.80;66.20
13458;DHT22;6801;53.018;11.560;2023-04-03T07:49:23;5.90;66.20
13458;DHT22;6801;53.018;11.560;2023-04-03T07:51:51;6.00;65.80
13458;DHT22;6801;53.018;11.560;2023-04-03T07:54:18;6.10;65.30
13458;DHT22;6801;53.018;11.560;2023-04-03T07:56:45;6.10;65.60
13458;DHT22;6801;53.018;11.560;2023-04-03T07:59:12;6.10;65.70
13458;DHT22;6801;53.018;11.560;2023-04-03T08:01:39;6.20;65.50
13458;DHT22;6801;53.018;11.560;2023-04-03T08:04:06;6.20;65.50
13458;DHT22;6801;53.018;11.560;2023-04-03T08:06:33;6.30;65.00
13458;DHT22;6801;53.018;11.560;2023-04-03T08:09:03;6.40;64.70
13458;DHT22;6801;53.018;11.560;2023-04-03T08:11:31;6.50;64.40
13458;DHT22;6801;53.018;11.560;2023-04-03T08:13:58;6.50;63.90
13458;DHT22;6801;53.018;11.560;2023-04-03T08:16:25;6.60;64.00
13458;DHT22;6801;53.018;11.560;2023-04-03T08:18:53;6.70;63.30
13458;DHT22;6801;53.018;11.560;2023-04-03T08:21:20;6.80;63.30
13458;DHT22;6801;53.018;11.560;2023-04-03T08:23:48;6.70;63.50
13458;DHT22;6801;53.018;11.560;2023-04-03T08:26:20;6.80;63.90
13458;DHT22;6801;53.018;11.560;2023-04-03T08:28:47;6.80;63.00
13458;DHT22;6801;53.018;11.560;2023-04-03T08:31:18;6.80;63.20
13458;DHT22;6801;53.018;11.560;2023-04-03T08:33:46;6.90;63.10
13458;DHT22;6801;53.018;11.560;2023-04-03T08:36:19;7.00;62.20
13458;DHT22;6801;53.018;11.560;2023-04-03T08:38:47;7.00;61.50
13458;DHT22;6801;53.018;11.560;2023-04-03T08:41:19;7.00;61.80
13458;DHT22;6801;53.018;11.560;2023-04-03T08:44:03;6.90;62.60
13458;DHT22;6801;53.018;11.560;2023-04-03T08:46:48;7.10;62.30
13458;DHT22;6801;53.018;11.560;2023-04-03T08:49:22;7.10;61.50
13458;DHT22;6801;53.018;11.560;2023-04-03T08:51:52;7.10;61.30
13458;DHT22;6801;53.018;11.560;2023-04-03T08:54:26;7.20;61.60
13458;DHT22;6801;53.018;11.560;2023-04-03T08:56:55;7.30;61.70
13458;DHT22;6801;53.018;11.560;2023-04-03T08:59:28;7.30;61.70
13458;DHT22;6801;53.018;11.560;2023-04-03T09:01:58;7.30;61.30
13458;DHT22;6801;53.018;11.560;2023-04-03T09:04:28;7.40;61.30
13458;DHT22;6801;53.018;11.560;2023-04-03T09:07:02;7.50;60.80
13458;DHT22;6801;53.018;11.560;2023-04-03T09:09:33;7.50;61.00
13458;DHT22;6801;53.018;11.560;2023-04-03T09:12:12;7.60;60.90
13458;DHT22;6801;53.018;11.560;2023-04-03T09:14:49;7.70;60.70
13458;DHT22;6801;53.018;11.560;2023-04-03T09:17:26;7.60;61.50
13458;DHT22;6801;53.018;11.560;2023-04-03T09:20:02;7.80;60.80
13458;DHT22;6801;53.018;11.560;2023-04-03T09:22:37;7.90;59.50
13458;DHT22;6801;53.018;11.560;2023-04-03T09:25:12;7.90;59.10
13458;DHT22;6801;53.018;11.560;2023-04-03T09:27:41;7.80;59.30
13458;DHT22;6801;53.018;11.560;2023-04-03T09:30:13;7.90;58.10
13458;DHT22;6801;53.018;11.560;2023-04-03T09:32:40;7.80;57.90
13458;DHT22;6801;53.018;11.560;2023-04-03T09:35:18;7.80;57.40
13458;DHT22;6801;53.018;11.560;2023-04-03T09:37:46;7.80;57.90
13458;DHT22;6801;53.018;11.560;2023-04-03T09:40:35;7.80;58.20
13458;DHT22;6801;53.018;11.560;2023-04-03T09:43:21;7.80;59.10
13458;DHT22;6801;53.018;11.560;2023-04-03T09:45:49;7.90;58.60
13458;DHT22;6801;53.018;11.560;2023-04-03T09:48:19;8.00;58.20
13458;DHT22;6801;53.018;11.560;2023-04-03T09:50:55;8.10;58.40
13458;DHT22;6801;53.018;11.560;2023-04-03T09:53:33;8.10;58.50
13458;DHT22;6801;53.018;11.560;2023-04-03T09:56:02;8.20;59.20
13458;DHT22;6801;53.018;11.560;2023-04-03T09:58:32;8.30;58.40
13458;DHT22;6801;53.018;11.560;2023-04-03T10:01:01;8.40;59.50
13458;DHT22;6801;53.018;11.560;2023-04-03T10:03:30;8.40;57.90
13458;DHT22;6801;53.018;11.560;2023-04-03T10:05:58;8.40;59.00
13458;DHT22;6801;53.018;11.560;2023-04-03T10:08:28;8.40;59.60
13458;DHT22;6801;53.018;11.560;2023-04-03T10:11:07;8.40;58.90
13458;DHT22;6801;53.018;11.560;2023-04-03T10:13:49;8.40;59.00
13458;DHT22;6801;53.018;11.560;2023-04-03T10:16:20;8.30;58.60
13458;DHT22;6801;53.018;11.560;2023-04-03T10:18:57;8.30;59.40
13458;DHT22;6801;53.018;11.560;2023-04-03T10:21:35;8.30;56.90
13458;DHT22;6801;53.018;11.560;2023-04-03T10:24:10;8.30;58.10
13458;DHT22;6801;53.018;11.560;2023-04-03T10:26:45;8.30;57.90
13458;DHT22;6801;53.018;11.560;2023-04-03T10:29:26;8.30;54.90
13458;DHT22;6801;53.018;11.560;2023-04-03T10:32:02;8.30;54.50
13458;DHT22;6801;53.018;11.560;2023-04-03T10:34:38;8.30;54.30
13458;DHT22;6801;53.018;11.560;2023-04-03T10:37:13;8.30;53.50
13458;DHT22;6801;53.018;11.560;2023-04-03T10:39:49;8.30;54.00
13458;DHT22;6801;53.018;11.560;2023-04-03T10:42:23;8.30;53.40
13458;DHT22;6801;53.018;11.560;2023-04-03T10:45:04;8.30;53.00
13458;DHT22;6801;53.018;11.560;2023-04-03T10:47:40;8.20;52.80
13458;DHT22;6801;53.018;11.560;2023-04-03T10:50:22;8.30;54.50
13458;DHT22;6801;53.018;11.560;2023-04-03T10:52:57;8.20;54.80
13458;DHT22;6801;53.018;11.560;2023-04-03T10:55:34;8.30;55.80
13458;DHT22;6801;53.018;11.560;2023-04-03T10:58:02;8.40;55.70
13458;DHT22;6801;53.018;11.560;2023-04-03T11:00:36;8.40;55.70
13458;DHT22;6801;53.018;11.560;2023-04-03T11:03:06;8.60;54.50
13458;DHT22;6801;53.018;11.560;2023-04-03T11:05:39;8.60;55.60
13458;DHT22;6801;53.018;11.560;2023-04-03T11:08:13;8.70;55.20
13458;DHT22;6801;53.018;11.560;2023-04-03T11:10:45;8.80;54.80
13458;DHT22;6801;53.018;11.560;2023-04-03T11:13:13;8.90;54.10
13458;DHT22;6801;53.018;11.560;2023-04-03T11:15:44;8.90;54.60
13458;DHT22;6801;53.018;11.560;2023-04-03T11:18:14;9.10;54.00
13458;DHT22;6801;53.018;11.560;2023-04-03T11:20:45;9.20;53.20
13458;DHT22;6801;53.018;11.560;2023-04-03T11:23:19;9.30;52.40
13458;DHT22;6801;53.018;11.560;2023-04-03T11:25:51;9.20;52.40
13458;DHT22;6801;53.018;11.560;2023-04-03T11:28:19;9.30;53.30
13458;DHT22;6801;53.018;11.560;2023-04-03T11:30:51;9.10;54.40
13458;DHT22;6801;53.018;11.560;2023-04-03T11:33:37;9.20;55.30
13458;DHT22;6801;53.018;11.560;2023-04-03T11:36:10;9.30;53.70
13458;DHT22;6801;53.018;11.560;2023-04-03T11:38:43;9.40;53.40
13458;DHT22;6801;53.018;11.560;2023-04-03T11:41:13;9.40;54.90
13458;DHT22;6801;53.018;11.560;2023-04-03T11:43:43;9.50;55.60
13458;DHT22;6801;53.018;11.560;2023-04-03T11:46:50;9.50;55.90
13458;DHT22;6801;53.018;11.560;2023-04-03T11:49:51;9.60;55.90
13458;DHT22;6801;53.018;11.560;2023-04-03T11:58:19;9.60;54.10
13458;DHT22;6801;53.018;11.560;2023-04-03T12:01:00;9.70;53.80
13458;DHT22;6801;53.018;11.560;2023-04-03T12:10:17;9.80;51.00
13458;DHT22;6801;53.018;11.560;2023-04-03T12:12:59;9.70;52.70
13458;DHT22;6801;53.018;11.560;2023-04-03T12:15:49;9.80;51.80
13458;DHT22;6801;53.018;11.560;2023-04-03T12:18:58;9.90;52.10
13458;DHT22;6801;53.018;11.560;2023-04-03T12:24:27;10.10;50.90
13458;DHT22;6801;53.018;11.560;2023-04-03T12:27:17;10.10;52.80
13458;DHT22;6801;53.018;11.560;2023-04-03T12:29:51;10.10;52.90
13458;DHT22;6801;53.018;11.560;2023-04-03T12:32:26;10.10;51.80
13458;DHT22;6801;53.018;11.560;2023-04-03T12:35:08;10.20;51.70
13458;DHT22;6801;53.018;11.560;2023-04-03T12:37:49;10.40;50.70
13458;DHT22;6801;53.018;11.560;2023-04-03T12:40:25;10.50;49.80
13458;DHT22;6801;53.018;11.560;2023-04-03T12:43:26;10.60;50.30
13458;DHT22;6801;53.018;11.560;2023-04-03T12:45:59;10.50;51.00
13458;DHT22;6801;53.018;11.560;2023-04-03T12:48:30;10.50;50.80
13458;DHT22;6801;53.018;11.560;2023-04-03T12:50:58;10.70;49.80
13458;DHT22;6801;53.018;11.560;2023-04-03T12:53:27;10.70;49.20
13458;DHT22;6801;53.018;11.560;2023-04-03T12:55:56;10.60;50.10
13458;DHT22;6801;53.018;11.560;2023-04-03T12:58:27;10.70;50.10
13458;DHT22;6801;53.018;11.560;2023-04-03T13:01:00;10.70;49.70
13458;DHT22;6801;53.018;11.560;2023-04-03T13:03:29;10.60;49.90
13458;DHT22;6801;53.018;11.560;2023-04-03T13:06:00;10.80;51.50
13458;DHT22;6801;53.018;11.560;2023-04-03T13:08:29;10.90;50.10
13458;DHT22;6801;53.018;11.560;2023-04-03T13:11:00;11.00;48.70
13458;DHT22;6801;53.018;11.560;2023-04-03T13:13:29;11.00;47.80
13458;DHT22;6801;53.018;11.560;2023-04-03T13:15:57;10.90;48.20
13458;DHT22;6801;53.018;11.560;2023-04-03T13:18:28;10.90;48.60
13458;DHT22;6801;53.018;11.560;2023-04-03T13:21:01;11.00;47.30
13458;DHT22;6801;53.018;11.560;2023-04-03T13:23:30;11.00;45.60
13458;DHT22;6801;53.018;11.560;2023-04-03T13:25:59;10.90;47.60
13458;DHT22;6801;53.018;11.560;2023-04-03T13:28:31;10.90;48.70
13458;DHT22;6801;53.018;11.560;2023-04-03T13:31:06;10.80;49.20
13458;DHT22;6801;53.018;11.560;2023-04-03T13:33:36;10.70;50.40
13458;DHT22;6801;53.018;11.560;2023-04-03T13:36:06;10.80;50.90
13458;DHT22;6801;53.018;11.560;2023-04-03T13:38:34;10.90;51.50
13458;DHT22;6801;53.018;11.560;2023-04-03T13:41:05;10.90;51.10
13458;DHT22;6801;53.018;11.560;2023-04-03T13:43:36;11.00;50.20
13458;DHT22;6801;53.018;11.560;2023-04-03T13:46:05;11.10;49.90
13458;DHT22;6801;53.018;11.560;2023-04-03T13:48:38;11.10;51.60
13458;DHT22;6801;53.018;11.560;2023-04-03T13:51:15;11.20;51.40
13458;DHT22;6801;53.018;11.560;2023-04-03T13:53:45;11.30;48.90
13458;DHT22;6801;53.018;11.560;2023-04-03T13:56:23;11.40;48.00
13458;DHT22;6801;53.018;11.560;2023-04-03T13:59:04;11.20;49.80
13458;DHT22;6801;53.018;11.560;2023-04-03T14:01:42;11.40;48.40
13458;DHT22;6801;53.018;11.560;2023-04-03T14:04:17;11.30;47.90
13458;DHT22;6801;53.018;11.560;2023-04-03T14:06:45;11.20;50.80
13458;DHT22;6801;53.018;11.560;2023-04-03T14:09:13;11.20;49.80
13458;DHT22;6801;53.018;11.560;2023-04-03T14:11:41;11.30;49.50
13458;DHT22;6801;53.018;11.560;2023-04-03T14:14:13;11.20;50.10
13458;DHT22;6801;53.018;11.560;2023-04-03T14:16:44;11.20;50.50
13458;DHT22;6801;53.018;11.560;2023-04-03T14:19:21;11.40;47.90
13458;DHT22;6801;53.018;11.560;2023-04-03T14:21:49;11.40;48.80
13458;DHT22;6801;53.018;11.560;2023-04-03T14:24:16;11.30;49.10
13458;DHT22;6801;53.018;11.560;2023-04-03T14:26:45;11.40;46.80
13458;DHT22;6801;53.018;11.560;2023-04-03T14:29:13;11.40;47.00
13458;DHT22;6801;53.018;11.560;2023-04-03T14:31:41;11.30;48.80
13458;DHT22;6801;53.018;11.560;2023-04-03T14:34:10;11.30;47.90
13458;DHT22;6801;53.018;11.560;2023-04-03T14:36:37;11.30;46.10
13458;DHT22;6801;53.018;11.560;2023-04-03T14:39:08;11.30;48.40
13458;DHT22;6801;53.018;11.560;2023-04-03T14:41:37;11.30;47.20
13458;DHT22;6801;53.018;11.560;2023-04-03T14:44:04;11.20;48.60
13458;DHT22;6801;53.018;11.560;2023-04-03T14:46:36;11.30;48.50
13458;DHT22;6801;53.018;11.560;2023-04-03T14:49:05;11.30;48.00
13458;DHT22;6801;53.018;11.560;2023-04-03T14:51:35;11.30;48.50
13458;DHT22;6801;53.018;11.560;2023-04-03T14:54:04;11.30;48.40
13458;DHT22;6801;53.018;11.560;2023-04-03T14:56:32;11.20;48.70
13458;DHT22;6801;53.018;11.560;2023-04-03T14:59:00;11.20;48.40
13458;DHT22;6801;53.018;11.560;2023-04-03T15:01:28;11.20;48.50
13458;DHT22;6801;53.018;11.560;2023-04-03T15:03:56;11.10;48.60
13458;DHT22;6801;53.018;11.560;2023-04-03T15:06:24;11.10;47.30
13458;DHT22;6801;53.018;11.560;2023-04-03T15:08:51;11.10;47.30
13458;DHT22;6801;53.018;11.560;2023-04-03T15:11:19;11.10;46.10
13458;DHT22;6801;53.018;11.560;2023-04-03T15:13:46;11.20;47.00
13458;DHT22;6801;53.018;11.560;2023-04-03T15:16:16;11.20;46.70
13458;DHT22;6801;53.018;11.560;2023-04-03T15:18:45;11.10;46.60
13458;DHT22;6801;53.018;11.560;2023-04-03T15:21:14;11.10;46.80
13458;DHT22;6801;53.018;11.560;2023-04-03T15:23:41;11.00;46.60
13458;DHT22;6801;53.018;11.560;2023-04-03T15:26:09;11.00;48.00
13458;DHT22;6801;53.018;11.560;2023-04-03T15:28:38;10.90;48.70
13458;DHT22;6801;53.018;11.560;2023-04-03T15:31:06;10.90;47.70
13458;DHT22;6801;53.018;11.560;2023-04-03T15:33:34;10.90;48.70
13458;DHT22;6801;53.018;11.560;2023-04-03T15:36:01;11.00;48.50
13458;DHT22;6801;53.018;11.560;2023-04-03T15:38:30;10.90;48.40
13458;DHT22;6801;53.018;11.560;2023-04-03T15:40:57;10.90;49.30
13458;DHT22;6801;53.018;11.560;2023-04-03T15:43:24;10.90;48.70
13458;DHT22;6801;53.018;11.560;2023-04-03T15:45:51;10.80;48.60
13458;DHT22;6801;53.018;11.560;2023-04-03T15:48:19;10.80;48.90
13458;DHT22;6801;53.018;11.560;2023-04-03T15:50:46;10.90;48.90
13458;DHT22;6801;53.018;11.560;2023-04-03T15:53:13;10.90;47.80
13458;DHT22;6801;53.018;11.560;2023-04-03T15:55:41;10.90;47.10
13458;DHT22;6801;53.018;11.560;2023-04-03T15:58:08;10.90;46.10
13458;DHT22;6801;53.018;11.560;2023-04-03T16:00:36;10.80;47.40
13458;DHT22;6801;53.018;11.560;2023-04-03T16:03:05;10.70;46.90
13458;DHT22;6801;53.018;11.560;2023-04-03T16:05:33;10.60;47.80
13458;DHT22;6801;53.018;11.560;2023-04-03T16:08:01;10.60;48.60
13458;DHT22;6801;53.018;11.560;2023-04-03T16:10:28;10.50;48.90
13458;DHT22;6801;53.018;11.560;2023-04-03T16:12:57;10.50;49.40
13458;DHT22;6801;53.018;11.560;2023-04-03T16:15:25;10.50;49.90
13458;DHT22;6801;53.018;11.560;2023-04-03T16:17:53;10.50;49.70
13458;DHT22;6801;53.018;11.560;2023-04-03T16:20:20;10.60;48.00